Time;durP1;ratioP1;P1;durP2;ratioP2;P2;SDS_P1;SDS_P2;PMS_P1;PMS_P2;Temp;Humidity;BMP_temperature;BMP_pressure;BME280_temperature;BME280_humidity;BME280_pressure;Samples;Min_cycle;Max_cycle;Signal;HPM_P1;HPM_P2
2023/10/21 00:01:46;;;;;;;26.38;13.38;;;;;;;9.04;100.00;97969.53;5171574;28;20022;-75
2023/10/21 00:04:17;;;;;;;28.70;13.70;;;;;;;9.03;100.00;97975.69;5174095;28;20041;-76
2023/10/21 00:06:47;;;;;;;25.73;13.07;;;;;;;8.90;100.00;97984.50;5156074;28;20033;-75
2023/10/21 00:09:18;;;;;;;21.30;12.02;;;;;;;8.93;100.00;97987.69;5174259;28;20116;-76
2023/10/21 00:11:48;;;;;;;21.20;10.90;;;;;;;8.90;100.00;97987.09;5170969;28;20554;-77
2023/10/21 00:14:18;;;;;;;17.70;10.73;;;;;;;8.71;100.00;97992.72;5173300;28;20053;-74
2023/10/21 00:16:49;;;;;;;27.23;10.98;;;;;;;8.74;100.00;97992.50;5175905;28;20029;-75
2023/10/21 00:19:20;;;;;;;20.80;10.88;;;;;;;8.57;100.00;97994.63;5173514;28;20318;-75
2023/10/21 00:21:50;;;;;;;19.75;11.43;;;;;;;8.53;100.00;97998.41;5172509;28;20495;-75
2023/10/21 00:24:20;;;;;;;22.25;11.52;;;;;;;8.39;100.00;98001.91;5174492;28;20083;-77
2023/10/21 00:26:51;;;;;;;17.30;10.10;;;;;;;8.36;100.00;98007.31;5176470;28;20030;-76
2023/10/21 00:29:21;;;;;;;18.58;10.45;;;;;;;8.36;100.00;98012.53;5177670;28;20040;-78
2023/10/21 00:31:51;;;;;;;20.95;10.63;;;;;;;8.34;100.00;98013.56;5176204;28;20036;-77
2023/10/21 00:34:21;;;;;;;19.00;10.20;;;;;;;8.41;100.00;98013.03;5178155;28;20083;-76
2023/10/21 00:36:52;;;;;;;21.88;11.05;;;;;;;8.32;100.00;98016.28;5173701;28;20030;-75
2023/10/21 00:39:22;;;;;;;22.23;11.75;;;;;;;8.45;100.00;98011.94;5159853;28;20029;-75
2023/10/21 00:41:52;;;;;;;25.55;12.88;;;;;;;8.52;100.00;98009.75;5171306;28;20065;-73
2023/10/21 00:44:23;;;;;;;26.00;12.25;;;;;;;8.54;100.00;98020.88;5170448;28;20443;-75
2023/10/21 00:46:54;;;;;;;23.88;12.95;;;;;;;8.52;100.00;98028.78;5157864;28;20570;-75
2023/10/21 00:49:26;;;;;;;24.92;13.43;;;;;;;8.63;100.00;98041.06;5174763;28;20376;-72
2023/10/21 00:51:58;;;;;;;27.17;12.93;;;;;;;8.75;100.00;98043.66;5177138;28;20503;-75
2023/10/21 00:54:28;;;;;;;41.83;14.95;;;;;;;8.79;100.00;98052.09;5175870;28;20038;-75
2023/10/21 00:56:59;;;;;;;25.40;12.40;;;;;;;8.64;100.00;98061.78;5175092;28;20026;-76
2023/10/21 00:59:29;;;;;;;26.63;12.60;;;;;;;8.54;100.00;98063.34;5176557;28;20516;-76
2023/10/21 01:01:59;;;;;;;29.23;13.18;;;;;;;8.69;100.00;98072.72;5175932;28;20112;-75
2023/10/21 01:04:30;;;;;;;26.35;12.68;;;;;;;8.77;100.00;98065.22;5176075;28;20029;-75
2023/10/21 01:07:00;;;;;;;22.45;12.40;;;;;;;8.77;100.00;98073.03;5177229;28;20032;-75
2023/10/21 01:09:31;;;;;;;26.13;13.52;;;;;;;9.02;100.00;98065.19;5173538;28;20029;-75
2023/10/21 01:12:01;;;;;;;31.02;13.98;;;;;;;9.16;100.00;98073.72;5176800;28;20095;-76
2023/10/21 01:14:31;;;;;;;30.48;13.40;;;;;;;9.25;100.00;98074.84;5173891;28;20471;-77
2023/10/21 01:17:02;;;;;;;28.17;13.95;;;;;;;9.30;100.00;98075.38;5176416;28;20022;-76
2023/10/21 01:19:32;;;;;;;22.80;13.23;;;;;;;9.34;100.00;98075.03;5175684;28;20026;-76
2023/10/21 01:22:03;;;;;;;30.27;14.60;;;;;;;9.35;100.00;98081.09;5176281;28;20029;-77
2023/10/21 01:24:33;;;;;;;23.55;13.35;;;;;;;9.37;100.00;98087.00;5176007;28;20014;-75
2023/10/21 01:27:04;;;;;;;25.52;13.48;;;;;;;9.35;100.00;98081.09;5176715;28;20072;-76
2023/10/21 01:29:34;;;;;;;29.48;14.55;;;;;;;9.41;100.00;98080.63;5174225;28;20033;-76
2023/10/21 01:32:05;;;;;;;28.27;14.57;;;;;;;9.39;100.00;98075.56;5154567;28;20034;-76
2023/10/21 01:34:35;;;;;;;30.95;15.07;;;;;;;9.41;100.00;98086.69;5155300;28;20026;-77
2023/10/21 01:37:06;;;;;;;28.45;14.23;;;;;;;9.46;100.00;98076.78;5177162;28;20205;-76
2023/10/21 01:39:37;;;;;;;31.27;15.82;;;;;;;9.40;100.00;98081.59;5174410;28;20033;-75
2023/10/21 01:42:08;;;;;;;29.25;14.23;;;;;;;9.49;100.00;98080.94;5175269;28;20041;-77
2023/10/21 01:44:38;;;;;;;32.00;14.45;;;;;;;9.44;100.00;98077.81;5175346;28;20068;-77
2023/10/21 01:47:08;;;;;;;31.70;15.32;;;;;;;9.44;100.00;98076.06;5175974;28;20045;-77
2023/10/21 01:49:39;;;;;;;32.60;16.60;;;;;;;9.41;100.00;98078.03;5175496;28;20029;-76
2023/10/21 01:52:11;;;;;;;34.50;15.40;;;;;;;9.37;100.00;98074.84;5175616;28;20545;-76
2023/10/21 01:54:43;;;;;;;31.88;15.43;;;;;;;9.29;100.00;98078.91;5175747;28;20439;-77
2023/10/21 01:57:13;;;;;;;27.73;13.68;;;;;;;9.18;100.00;98078.81;5173239;28;20061;-77
2023/10/21 01:59:44;;;;;;;29.67;14.95;;;;;;;9.15;100.00;98071.22;5175029;28;20620;-74
2023/10/21 02:02:14;;;;;;;26.48;13.98;;;;;;;9.07;100.00;98067.50;5174159;28;20025;-75
2023/10/21 02:04:44;;;;;;;15.70;10.38;;;;;;;8.61;100.00;98069.81;5174648;28;20041;-74
2023/10/21 02:07:15;;;;;;;14.80;9.55;;;;;;;8.48;100.00;98055.94;5157775;28;20511;-73
2023/10/21 02:09:45;;;;;;;13.75;9.05;;;;;;;8.30;100.00;98064.13;5174099;28;20049;-73
2023/10/21 02:12:15;;;;;;;13.90;9.35;;;;;;;8.15;100.00;98076.38;5173708;28;20038;-74
2023/10/21 02:14:46;;;;;;;13.93;9.40;;;;;;;8.07;100.00;98088.22;5173900;28;20064;-75
2023/10/21 02:17:16;;;;;;;13.65;8.75;;;;;;;7.99;100.00;98093.06;5175153;28;20080;-77
2023/10/21 02:19:46;;;;;;;11.70;8.23;;;;;;;8.17;100.00;98090.09;5173715;28;20044;-73
2023/10/21 02:22:17;;;;;;;13.23;8.63;;;;;;;8.11;100.00;98085.31;5155403;28;20025;-77
2023/10/21 02:24:47;;;;;;;15.13;9.13;;;;;;;8.21;100.00;98088.19;5174226;28;20103;-75
2023/10/21 02:27:18;;;;;;;12.95;9.13;;;;;;;8.35;100.00;98088.09;5175186;28;20029;-75
2023/10/21 02:29:49;;;;;;;18.15;10.27;;;;;;;8.43;100.00;98080.59;5172788;28;20289;-73
2023/10/21 02:32:19;;;;;;;18.23;10.10;;;;;;;8.42;100.00;98094.56;5174514;28;20499;-77
2023/10/21 02:34:55;;;;;;;15.57;9.90;;;;;;;8.46;100.00;98111.63;5173442;28;20060;-76
2023/10/21 02:37:26;;;;;;;13.50;9.68;;;;;;;8.48;100.00;98109.75;5172916;28;20064;-75
2023/10/21 02:39:56;;;;;;;15.90;9.88;;;;;;;8.46;100.00;98094.25;5174263;28;20069;-75
2023/10/21 02:42:26;;;;;;;15.98;9.98;;;;;;;8.54;100.00;98094.56;5172089;28;20117;-77
2023/10/21 02:44:57;;;;;;;18.23;10.18;;;;;;;8.52;100.00;98101.66;5158047;28;20061;-77
2023/10/21 02:47:27;;;;;;;17.65;9.85;;;;;;;8.62;100.00;98094.91;5173876;28;20581;-76
2023/10/21 02:49:57;;;;;;;16.77;9.55;;;;;;;8.70;100.00;98092.59;5174371;28;20033;-77
2023/10/21 02:52:28;;;;;;;15.20;10.13;;;;;;;8.75;100.00;98095.72;5173827;28;20112;-76
2023/10/21 02:54:59;;;;;;;14.75;9.75;;;;;;;8.73;100.00;98097.59;5175313;28;20033;-76
2023/10/21 02:57:29;;;;;;;16.17;10.18;;;;;;;8.74;100.00;98095.84;5172274;28;20125;-75
2023/10/21 02:59:59;;;;;;;14.25;9.60;;;;;;;8.79;100.00;98099.81;5174191;28;20026;-76
2023/10/21 03:02:29;;;;;;;13.65;9.15;;;;;;;8.83;100.00;98100.41;5156915;28;20088;-75
2023/10/21 03:05:00;;;;;;;17.58;9.73;;;;;;;8.83;100.00;98097.81;5174950;28;20022;-77
2023/10/21 03:07:30;;;;;;;16.58;9.80;;;;;;;8.92;100.00;98098.00;5173791;28;20423;-76
2023/10/21 03:10:01;;;;;;;16.70;9.75;;;;;;;8.96;100.00;98101.25;5155941;28;20034;-75
2023/10/21 03:12:31;;;;;;;16.30;10.05;;;;;;;9.11;100.00;98101.03;5172956;28;20038;-77
2023/10/21 03:15:02;;;;;;;16.42;9.35;;;;;;;9.15;100.00;98110.31;5173894;28;20163;-76
2023/10/21 03:17:32;;;;;;;17.83;10.60;;;;;;;9.10;100.00;98119.38;5174402;28;20029;-76
2023/10/21 03:20:03;;;;;;;17.75;10.48;;;;;;;9.01;100.00;98115.63;5174453;28;20396;-75
2023/10/21 03:22:34;;;;;;;20.63;10.40;;;;;;;9.09;100.00;98123.72;5175948;28;20013;-75
2023/10/21 03:25:05;;;;;;;21.67;10.73;;;;;;;9.11;100.00;98119.28;5175024;28;20779;-77
2023/10/21 03:27:36;;;;;;;19.80;11.48;;;;;;;9.25;100.00;98113.91;5174008;28;20048;-76
2023/10/21 03:30:07;;;;;;;19.13;10.75;;;;;;;9.26;100.00;98105.16;5174141;28;20034;-76
2023/10/21 03:32:38;;;;;;;19.30;11.35;;;;;;;9.21;100.00;98102.06;5173327;28;20084;-77
2023/10/21 03:35:09;;;;;;;19.73;11.23;;;;;;;9.25;100.00;98090.47;5171958;28;20033;-77
2023/10/21 03:37:39;;;;;;;17.38;10.35;;;;;;;9.35;100.00;98100.16;5156587;28;20501;-76
2023/10/21 03:40:10;;;;;;;18.13;10.07;;;;;;;9.27;100.00;98093.81;5174245;28;20030;-75
2023/10/21 03:42:40;;;;;;;19.02;10.00;;;;;;;9.36;100.00;98095.78;5173724;28;20036;-77
2023/10/21 03:45:11;;;;;;;16.60;10.10;;;;;;;9.31;100.00;98095.28;5156217;28;20459;-75
2023/10/21 03:47:41;;;;;;;22.60;11.90;;;;;;;9.52;100.00;98088.53;5174017;28;20272;-76
2023/10/21 03:50:12;;;;;;;18.67;10.43;;;;;;;9.53;100.00;98103.25;5171854;28;20029;-76
2023/10/21 03:52:42;;;;;;;19.77;10.77;;;;;;;9.52;100.00;98101.59;5173289;28;20030;-75
2023/10/21 03:55:12;;;;;;;20.33;11.25;;;;;;;9.68;100.00;98089.94;5173549;28;20083;-74
2023/10/21 03:57:42;;;;;;;16.05;9.65;;;;;;;9.62;100.00;98087.78;5174996;28;20029;-75
2023/10/21 04:00:13;;;;;;;15.82;9.95;;;;;;;9.69;100.00;98082.97;5160962;28;20045;-74
2023/10/21 04:02:43;;;;;;;15.30;9.48;;;;;;;9.66;100.00;98091.00;5177432;28;20109;-75
2023/10/21 04:05:14;;;;;;;16.95;9.02;;;;;;;9.63;100.00;98093.84;5177509;28;20022;-72
2023/10/21 04:07:45;;;;;;;14.85;9.20;;;;;;;9.63;100.00;98099.06;5178175;28;20111;-76
2023/10/21 04:10:16;;;;;;;15.60;8.98;;;;;;;9.57;100.00;98097.72;5177809;28;20068;-76
2023/10/21 04:12:46;;;;;;;16.23;9.50;;;;;;;9.60;100.00;98099.25;5174958;28;20490;-78
2023/10/21 04:15:17;;;;;;;20.15;10.52;;;;;;;9.61;100.00;98103.50;5176691;28;20115;-76
2023/10/21 04:17:47;;;;;;;17.95;10.18;;;;;;;9.59;100.00;98103.66;5177418;28;20025;-77
2023/10/21 04:20:18;;;;;;;14.70;9.20;;;;;;;9.67;100.00;98105.72;5176910;28;20539;-75
2023/10/21 04:22:48;;;;;;;14.75;9.10;;;;;;;9.63;100.00;98104.28;5177633;28;20385;-78
2023/10/21 04:25:18;;;;;;;16.17;9.55;;;;;;;9.66;100.00;98112.69;5174059;28;20034;-77
2023/10/21 04:27:49;;;;;;;14.80;8.63;;;;;;;9.66;100.00;98104.06;5176818;28;20034;-76
2023/10/21 04:30:19;;;;;;;16.42;9.75;;;;;;;9.69;100.00;98106.44;5177435;28;20030;-76
2023/10/21 04:32:51;;;;;;;15.55;9.93;;;;;;;9.70;100.00;98098.50;5177700;28;20503;-76
2023/10/21 04:35:21;;;;;;;18.50;10.48;;;;;;;9.72;100.00;98090.56;5177396;28;20026;-77
2023/10/21 04:37:51;;;;;;;16.30;9.90;;;;;;;9.79;100.00;98094.41;5178142;28;20430;-76
2023/10/21 04:40:22;;;;;;;18.83;10.70;;;;;;;9.82;100.00;98109.84;5176773;28;20040;-75
2023/10/21 04:42:52;;;;;;;16.70;10.00;;;;;;;9.78;100.00;98114.44;5176628;28;20446;-76
2023/10/21 04:45:23;;;;;;;17.15;9.90;;;;;;;9.88;100.00;98109.38;5177291;28;20095;-77
2023/10/21 04:47:53;;;;;;;19.13;11.18;;;;;;;9.89;100.00;98117.13;5159764;28;20124;-77
2023/10/21 04:50:23;;;;;;;19.15;10.80;;;;;;;9.96;100.00;98115.72;5178475;28;20479;-77
2023/10/21 04:52:54;;;;;;;20.40;11.57;;;;;;;10.12;100.00;98120.66;5172576;28;20033;-75
2023/10/21 04:55:24;;;;;;;22.75;12.95;;;;;;;10.34;100.00;98119.00;5157888;28;20026;-73
2023/10/21 04:57:54;;;;;;;26.40;13.52;;;;;;;10.56;100.00;98113.88;5176439;28;20065;-75
2023/10/21 05:00:25;;;;;;;24.05;13.25;;;;;;;10.66;100.00;98114.00;5176116;28;20026;-72
2023/10/21 05:02:55;;;;;;;27.40;14.18;;;;;;;10.70;100.00;98107.59;5176864;28;20026;-78
2023/10/21 05:05:25;;;;;;;26.20;13.57;;;;;;;10.74;100.00;98122.94;5174071;28;20132;-75
2023/10/21 05:07:56;;;;;;;26.13;14.48;;;;;;;10.76;100.00;98114.97;5177479;28;20033;-76
2023/10/21 05:10:26;;;;;;;26.60;13.77;;;;;;;10.82;100.00;98115.34;5174298;28;20113;-77
2023/10/21 05:12:56;;;;;;;25.30;13.73;;;;;;;10.86;100.00;98119.38;5177918;28;20044;-76
2023/10/21 05:15:27;;;;;;;27.00;14.52;;;;;;;10.84;100.00;98118.66;5173989;28;20406;-76
2023/10/21 05:17:57;;;;;;;25.25;14.05;;;;;;;10.83;100.00;98122.22;5177237;28;20493;-76
2023/10/21 05:20:27;;;;;;;23.90;14.05;;;;;;;10.94;100.00;98124.03;5174153;28;20519;-77
2023/10/21 05:22:58;;;;;;;26.65;13.43;;;;;;;10.84;100.00;98129.13;5179225;28;20080;-76
2023/10/21 05:25:28;;;;;;;24.98;13.15;;;;;;;10.83;100.00;98121.41;5175205;28;20056;-76
2023/10/21 05:27:58;;;;;;;21.88;12.77;;;;;;;10.80;100.00;98132.91;5176009;28;20376;-76
2023/10/21 05:30:28;;;;;;;28.00;12.30;;;;;;;10.89;100.00;98126.97;5174352;28;20040;-77
2023/10/21 05:32:59;;;;;;;22.88;12.57;;;;;;;10.88;100.00;98133.16;5177048;28;20037;-77
2023/10/21 05:35:30;;;;;;;21.10;11.88;;;;;;;10.88;100.00;98141.00;5175695;28;20093;-75
2023/10/21 05:38:00;;;;;;;19.90;11.02;;;;;;;10.89;100.00;98136.63;5176196;28;20026;-76
2023/10/21 05:40:30;;;;;;;19.63;11.80;;;;;;;10.97;100.00;98137.69;5172188;28;20026;-76
2023/10/21 05:43:01;;;;;;;20.42;11.70;;;;;;;10.98;100.00;98146.34;5175911;28;20026;-76
2023/10/21 05:45:33;;;;;;;20.00;11.45;;;;;;;10.95;100.00;98142.22;5174401;28;20087;-77
2023/10/21 05:48:04;;;;;;;17.85;11.10;;;;;;;11.05;100.00;98151.84;5176997;28;20487;-76
2023/10/21 05:50:34;;;;;;;18.52;11.23;;;;;;;11.04;100.00;98154.56;5174944;28;20083;-75
2023/10/21 05:53:04;;;;;;;17.42;9.73;;;;;;;11.13;100.00;98164.34;5176910;28;20088;-75
2023/10/21 05:55:42;;;;;;;28.25;10.52;;;;;;;11.27;100.00;98166.72;5158185;28;20053;-76
2023/10/21 05:58:13;;;;;;;17.92;9.85;;;;;;;11.19;100.00;98174.31;5174640;28;20507;-76
2023/10/21 06:00:43;;;;;;;19.58;11.00;;;;;;;11.21;100.00;98181.09;5174688;28;20045;-76
2023/10/21 06:03:13;;;;;;;19.33;10.18;;;;;;;11.20;100.00;98182.06;5174932;28;20103;-73
2023/10/21 06:05:44;;;;;;;21.13;12.00;;;;;;;11.23;100.00;98188.81;5175728;28;20033;-76
2023/10/21 06:08:14;;;;;;;19.63;11.52;;;;;;;11.19;100.00;98203.06;5176690;28;20036;-74
2023/10/21 06:10:46;;;;;;;20.42;11.50;;;;;;;11.18;100.00;98197.03;5152330;28;20037;-76
2023/10/21 06:13:16;;;;;;;20.63;12.32;;;;;;;11.16;100.00;98204.16;5174792;28;20022;-75
2023/10/21 06:15:49;;;;;;;21.00;11.35;;;;;;;11.14;100.00;98211.25;5174516;28;20022;-75
2023/10/21 06:18:20;;;;;;;19.13;11.93;;;;;;;11.11;100.00;98215.91;5175734;28;20510;-77
2023/10/21 06:20:50;;;;;;;19.70;11.88;;;;;;;11.13;100.00;98214.81;5174666;28;20033;-76
2023/10/21 06:23:21;;;;;;;21.92;11.48;;;;;;;11.09;100.00;98218.63;5173936;28;20045;-75
2023/10/21 06:25:52;;;;;;;21.70;12.10;;;;;;;11.11;100.00;98218.50;5178251;28;20495;-76
2023/10/21 06:28:22;;;;;;;23.30;12.73;;;;;;;11.05;100.00;98221.56;5154712;28;20033;-75
2023/10/21 06:30:53;;;;;;;21.95;12.20;;;;;;;11.10;100.00;98228.13;5176442;28;20025;-76
2023/10/21 06:33:23;;;;;;;24.38;12.57;;;;;;;11.10;100.00;98225.50;5172955;28;20108;-75
2023/10/21 06:35:53;;;;;;;22.40;12.48;;;;;;;11.17;100.00;98231.09;5174653;28;20117;-74
2023/10/21 06:38:23;;;;;;;19.92;11.50;;;;;;;11.05;100.00;98232.88;5171614;28;20029;-75
2023/10/21 06:40:54;;;;;;;22.15;11.98;;;;;;;11.11;100.00;98235.00;5173799;28;20038;-75
2023/10/21 06:43:24;;;;;;;21.65;12.13;;;;;;;11.12;100.00;98239.28;5172917;28;20443;-72
2023/10/21 06:45:54;;;;;;;20.13;11.98;;;;;;;11.10;100.00;98241.19;5175283;28;20117;-74
2023/10/21 06:48:25;;;;;;;23.85;12.73;;;;;;;11.08;100.00;98248.31;5174281;28;20033;-74
2023/10/21 06:50:56;;;;;;;22.33;12.55;;;;;;;11.04;100.00;98252.09;5175115;28;20367;-75
2023/10/21 06:53:29;;;;;;;22.05;12.98;;;;;;;11.02;100.00;98254.00;5173458;28;20060;-75
2023/10/21 06:55:59;;;;;;;21.35;12.20;;;;;;;11.05;100.00;98258.16;5172835;28;20033;-74
2023/10/21 06:58:29;;;;;;;21.23;12.20;;;;;;;11.02;100.00;98263.59;5170450;28;20538;-75
2023/10/21 07:01:01;;;;;;;21.80;11.90;;;;;;;11.02;100.00;98269.69;5175350;28;20029;-74
2023/10/21 07:03:31;;;;;;;22.35;12.55;;;;;;;11.09;100.00;98273.50;5173895;28;20649;-75
2023/10/21 07:06:02;;;;;;;22.02;12.88;;;;;;;11.08;100.00;98279.69;5178513;28;20037;-77
2023/10/21 07:08:35;;;;;;;23.63;12.73;;;;;;;11.07;100.00;98277.19;5156119;28;20496;-76
2023/10/21 07:11:06;;;;;;;23.40;12.77;;;;;;;11.09;100.00;98290.97;5199837;22;20125;-72
2023/10/21 07:13:36;;;;;;;26.55;13.25;;;;;;;11.10;100.00;98288.22;5186769;28;20018;-72
2023/10/21 07:16:08;;;;;;;22.25;12.38;;;;;;;11.15;100.00;98295.75;5185541;28;20053;-72
2023/10/21 07:18:39;;;;;;;23.08;13.20;;;;;;;11.15;100.00;98296.59;5187155;28;20036;-72
2023/10/21 07:21:09;;;;;;;27.15;13.30;;;;;;;11.20;100.00;98306.69;5172026;28;20487;-72
2023/10/21 07:23:40;;;;;;;25.98;12.88;;;;;;;11.25;100.00;98302.78;5174216;28;20032;-72
2023/10/21 07:26:10;;;;;;;22.90;12.15;;;;;;;11.25;100.00;98308.00;5185903;28;20489;-72
2023/10/21 07:28:40;;;;;;;22.85;12.57;;;;;;;11.31;100.00;98310.16;5182968;28;20029;-72
2023/10/21 07:31:11;;;;;;;24.23;13.38;;;;;;;11.37;100.00;98322.78;5177909;28;20030;-72
2023/10/21 07:33:41;;;;;;;24.52;12.95;;;;;;;11.37;100.00;98322.78;5179876;28;20588;-72
2023/10/21 07:36:11;;;;;;;25.75;13.20;;;;;;;11.49;100.00;98328.88;5180674;28;20033;-72
2023/10/21 07:38:42;;;;;;;23.92;12.55;;;;;;;11.55;100.00;98333.66;5182290;28;20617;-72
2023/10/21 07:41:13;;;;;;;23.85;13.68;;;;;;;11.58;100.00;98336.91;5182761;28;20502;-72
2023/10/21 07:43:43;;;;;;;21.23;12.63;;;;;;;11.60;100.00;98336.81;5193067;28;20215;-73
2023/10/21 07:46:14;;;;;;;26.38;13.55;;;;;;;11.55;100.00;98342.34;5195927;28;20060;-72
2023/10/21 07:48:44;;;;;;;22.95;11.98;;;;;;;11.60;100.00;98347.28;5194153;28;20057;-72
2023/10/21 07:51:14;;;;;;;21.42;12.60;;;;;;;11.65;100.00;98345.13;5191481;28;20121;-72
2023/10/21 07:53:44;;;;;;;23.83;13.18;;;;;;;11.61;100.00;98362.00;5188143;28;20061;-72
2023/10/21 07:56:15;;;;;;;24.58;13.63;;;;;;;11.64;100.00;98372.25;5176438;28;20043;-73
2023/10/21 07:58:45;;;;;;;22.75;12.57;;;;;;;11.73;100.00;98371.53;5193338;28;20433;-72
2023/10/21 08:01:16;;;;;;;26.00;12.88;;;;;;;11.69;100.00;98385.81;5191805;28;20120;-73
2023/10/21 08:03:46;;;;;;;23.77;12.35;;;;;;;11.72;100.00;98391.66;5191125;28;20032;-73
2023/10/21 08:06:16;;;;;;;23.00;12.75;;;;;;;11.77;100.00;98394.75;5176154;28;20037;-73
2023/10/21 08:08:47;;;;;;;22.38;12.80;;;;;;;11.78;100.00;98404.25;5190851;28;20328;-73
2023/10/21 08:11:17;;;;;;;22.38;12.38;;;;;;;11.77;100.00;98415.69;5193079;28;20056;-73
2023/10/21 08:13:47;;;;;;;24.92;13.15;;;;;;;11.82;100.00;98412.72;5194289;28;20037;-73
2023/10/21 08:16:18;;;;;;;24.67;13.05;;;;;;;11.89;100.00;98420.00;5198347;28;20490;-73
2023/10/21 08:19:00;;;;;;;22.50;12.27;;;;;;;12.03;100.00;98424.19;5194733;28;20029;-73
2023/10/21 08:21:34;;;;;;;26.10;13.02;;;;;;;12.05;100.00;98432.75;5175445;28;20028;-74
2023/10/21 08:24:07;;;;;;;23.65;11.52;;;;;;;12.12;100.00;98432.19;5174440;28;20033;-73
2023/10/21 08:26:41;;;;;;;21.63;11.65;;;;;;;12.15;100.00;98447.66;5198201;28;20028;-73
2023/10/21 08:29:14;;;;;;;23.33;11.43;;;;;;;12.18;100.00;98451.84;5199924;28;20482;-73
2023/10/21 08:31:45;;;;;;;22.33;11.60;;;;;;;12.15;100.00;98452.91;5177798;28;20041;-74
2023/10/21 08:34:16;;;;;;;21.75;11.45;;;;;;;12.19;100.00;98467.44;5170540;28;20107;-74
2023/10/21 08:36:52;;;;;;;23.13;11.90;;;;;;;12.32;100.00;98475.19;5185387;28;20529;-74
2023/10/21 08:39:22;;;;;;;22.73;11.50;;;;;;;12.35;100.00;98475.81;5165910;28;20051;-74
2023/10/21 08:41:59;;;;;;;24.38;11.00;;;;;;;12.47;100.00;98471.41;5192868;28;20033;-74
2023/10/21 08:44:33;;;;;;;21.55;10.50;;;;;;;12.97;100.00;98479.66;5185808;28;20034;-74
2023/10/21 08:47:06;;;;;;;16.05;8.07;;;;;;;13.51;100.00;98480.50;5194853;28;20190;-74
2023/10/21 08:49:39;;;;;;;10.48;6.57;;;;;;;13.65;100.00;98485.50;5193216;28;20017;-74
2023/10/21 08:52:10;;;;;;;11.73;6.70;;;;;;;13.70;100.00;98489.41;5198492;28;20040;-74
2023/10/21 08:54:42;;;;;;;11.18;5.72;;;;;;;13.78;100.00;98488.78;5197297;28;20434;-74
2023/10/21 08:57:13;;;;;;;9.50;4.18;;;;;;;13.91;100.00;98500.78;5194365;28;20407;-74
2023/10/21 08:59:43;;;;;;;8.20;4.50;;;;;;;13.77;100.00;98508.13;5193462;28;20041;-74
2023/10/21 09:02:13;;;;;;;6.40;3.80;;;;;;;13.91;100.00;98518.34;5177595;28;20021;-74
2023/10/21 09:04:44;;;;;;;5.75;3.30;;;;;;;14.05;100.00;98518.06;5194641;28;20047;-74
2023/10/21 09:07:14;;;;;;;5.50;2.50;;;;;;;14.52;100.00;98523.69;5195615;28;20414;-74
2023/10/21 09:09:45;;;;;;;3.45;1.95;;;;;;;14.68;100.00;98526.69;5170964;28;20037;-73
2023/10/21 09:12:16;;;;;;;2.80;1.70;;;;;;;15.04;100.00;98523.53;5193700;28;20052;-73
2023/10/21 09:14:54;;;;;;;3.15;1.38;;;;;;;15.22;100.00;98530.66;5192908;28;20055;-72
2023/10/21 09:17:52;;;;;;;1.90;1.10;;;;;;;15.27;100.00;98536.38;5162558;28;20037;-72
2023/10/21 09:20:22;;;;;;;2.67;1.00;;;;;;;15.46;100.00;98543.50;5174635;28;20026;-73
2023/10/21 09:23:02;;;;;;;5.03;1.75;;;;;;;15.25;100.00;98540.94;5191593;28;20045;-72
2023/10/21 09:25:33;;;;;;;2.72;0.70;;;;;;;15.34;100.00;98540.16;5193315;28;20076;-72
2023/10/21 09:28:04;;;;;;;1.45;0.70;;;;;;;15.51;100.00;98560.56;5188532;28;20503;-72
2023/10/21 09:30:36;;;;;;;2.78;0.52;;;;;;;15.39;100.00;98556.38;5189644;28;20116;-72
2023/10/21 09:33:09;;;;;;;0.88;0.52;;;;;;;15.55;100.00;98574.31;5197936;28;20430;-72
2023/10/21 09:35:39;;;;;;;2.88;0.70;;;;;;;15.64;100.00;98582.25;5191381;28;20406;-72
2023/10/21 09:38:17;;;;;;;1.58;0.65;;;;;;;15.53;100.00;98582.34;5197430;28;20029;-72
2023/10/21 09:40:49;;;;;;;1.58;0.60;;;;;;;15.46;100.00;98590.91;5199506;28;20067;-72
2023/10/21 09:43:20;;;;;;;3.25;0.88;;;;;;;15.57;100.00;98599.53;5199732;28;20502;-72
2023/10/21 09:45:55;;;;;;;1.42;0.73;;;;;;;15.75;100.00;98591.84;5171272;28;20029;-72
2023/10/21 09:48:28;;;;;;;1.55;0.70;;;;;;;15.72;100.00;98611.34;5191072;28;20025;-72
2023/10/21 09:51:00;;;;;;;2.58;0.90;;;;;;;15.77;100.00;98601.28;5186114;28;20026;-72
2023/10/21 09:53:38;;;;;;;2.90;0.90;;;;;;;15.85;100.00;98622.50;5189018;28;20046;-72
2023/10/21 09:56:11;;;;;;;1.90;0.70;;;;;;;15.84;100.00;98622.66;5184803;28;20044;-73
2023/10/21 09:58:44;;;;;;;2.35;0.80;;;;;;;15.95;100.00;98631.25;5185310;28;20058;-72
2023/10/21 10:01:17;;;;;;;3.03;1.00;;;;;;;16.10;100.00;98635.19;5186940;28;20463;-73
2023/10/21 10:03:48;;;;;;;2.65;1.00;;;;;;;16.29;100.00;98629.94;5187131;28;20120;-72
2023/10/21 10:06:19;;;;;;;3.90;1.08;;;;;;;16.26;100.00;98629.38;5185489;28;20100;-73
2023/10/21 10:08:50;;;;;;;2.30;1.10;;;;;;;16.36;100.00;98636.34;5186191;28;20095;-72
2023/10/21 10:11:23;;;;;;;4.07;1.40;;;;;;;16.41;100.00;98634.13;5186317;28;20040;-72
2023/10/21 10:13:53;;;;;;;1.05;0.60;;;;;;;16.66;100.00;98643.28;5183613;28;20518;-73
2023/10/21 10:16:25;;;;;;;1.65;0.80;;;;;;;16.55;100.00;98646.91;5182207;28;20034;-72
2023/10/21 10:18:58;;;;;;;2.25;0.82;;;;;;;16.70;100.00;98649.97;5190518;28;20414;-73
2023/10/21 10:21:29;;;;;;;2.55;0.68;;;;;;;16.80;100.00;98654.28;5185732;28;20113;-72
2023/10/21 10:24:03;;;;;;;2.65;0.70;;;;;;;16.86;100.00;98661.63;5174455;28;20837;-73
2023/10/21 10:26:38;;;;;;;6.30;1.10;;;;;;;16.64;100.00;98669.81;5192086;28;20029;-72
2023/10/21 10:29:25;;;;;;;5.03;1.10;;;;;;;16.64;100.00;98669.81;5186270;28;20045;-73
2023/10/21 10:32:16;;;;;;;;;;;;;;;16.49;100.00;98665.94;5183874;28;20057;-73
2023/10/21 10:34:55;;;;;;;2.92;0.70;;;;;;;16.32;100.00;98671.84;5184093;28;20382;-72
2023/10/21 10:37:34;;;;;;;2.08;0.55;;;;;;;16.29;100.00;98669.47;5167995;28;20510;-72
2023/10/21 10:40:20;;;;;;;2.92;0.77;;;;;;;16.18;100.00;98682.75;5187314;28;20025;-73
2023/10/21 10:42:51;;;;;;;2.65;0.70;;;;;;;16.21;100.00;98676.41;5192803;28;20087;-73
2023/10/21 10:45:21;;;;;;;1.90;0.68;;;;;;;16.17;100.00;98673.19;5173274;28;20029;-72
2023/10/21 10:48:00;;;;;;;1.08;0.40;;;;;;;16.14;100.00;98672.63;5191349;28;20037;-72
2023/10/21 10:50:31;;;;;;;2.45;0.50;;;;;;;16.15;100.00;98685.69;5194452;28;20179;-72
2023/10/21 10:53:14;;;;;;;0.50;0.30;;;;;;;16.11;100.00;98693.97;5176349;28;20108;-73
2023/10/21 10:55:53;;;;;;;1.50;0.47;;;;;;;16.18;100.00;98695.13;5193553;28;20278;-71
2023/10/21 10:58:27;;;;;;;1.88;0.20;;;;;;;16.51;100.00;98692.13;5186064;28;20031;-71
2023/10/21 11:01:00;;;;;;;1.33;0.40;;;;;;;16.59;100.00;98698.41;5194856;28;20034;-72
2023/10/21 11:03:35;;;;;;;0.57;0.30;;;;;;;16.53;100.00;98706.88;5192808;28;20025;-73
2023/10/21 11:06:06;;;;;;;0.55;0.38;;;;;;;16.56;100.00;98711.03;5190790;28;20069;-72
2023/10/21 11:08:36;;;;;;;2.28;0.40;;;;;;;16.45;100.00;98719.06;5195617;28;20075;-72
2023/10/21 11:11:10;;;;;;;0.90;0.38;;;;;;;16.50;100.00;98722.97;5194574;28;20183;-72
2023/10/21 11:13:42;;;;;;;0.75;0.22;;;;;;;16.50;100.00;98722.97;5189849;28;20091;-72
2023/10/21 11:16:13;;;;;;;1.98;0.38;;;;;;;16.56;100.00;98727.69;5192040;28;20041;-72
2023/10/21 11:18:43;;;;;;;0.50;0.20;;;;;;;16.66;100.00;98722.41;5193570;28;20804;-73
2023/10/21 11:21:13;;;;;;;0.80;0.22;;;;;;;16.90;100.00;98727.16;5172313;28;20037;-72
2023/10/21 11:23:44;;;;;;;0.60;0.40;;;;;;;17.03;100.00;98733.00;5175171;28;20043;-73
2023/10/21 11:26:15;;;;;;;0.60;0.30;;;;;;;17.03;100.00;98732.16;5193773;28;20049;-74
2023/10/21 11:28:45;;;;;;;2.63;0.30;;;;;;;16.82;100.00;98726.19;5176619;28;20128;-73
2023/10/21 11:31:18;;;;;;;2.75;0.57;;;;;;;16.87;100.00;98737.16;5188697;28;20141;-74
2023/10/21 11:33:48;;;;;;;2.78;0.40;;;;;;;16.94;100.00;98735.66;5192386;28;20041;-73
2023/10/21 11:36:19;;;;;;;0.95;0.30;;;;;;;17.06;100.00;98745.94;5193205;28;20099;-73